Terminal Aerodrome Forecast
Issued by NWS

Home | Current Version | Previous Version | Text Only | Print | Product List | Glossary On
Versions: 1 2 3 4 5 6 7 8 9 10 11 12 13 14 15
863
FTUS46 KSTO 051315 AAA
TAFMHR
TAF AMD
KMHR 051315Z 0513/0612 VRB03KT 3SM BCFG BR SCT002 SCT200
      TEMPO 0514/0516 1/2SM FG OVC001
     FM051800 33011KT P6SM SCT200
     FM061100 32003KT 4SM MIFG SCT002=

USA.gov is the U.S. government's official web portal to all federal, state and local government web resources and services.